createdAt,value
2018-05-08T00:00:00.249Z,80.67
2018-05-08T00:01:53.402Z,80.10
2018-05-08T00:02:53.203Z,80.77
2018-05-08T00:04:46.363Z,80.48
2018-05-08T00:05:46.166Z,80.77
2018-05-08T00:07:39.346Z,80.58
2018-05-08T00:08:39.115Z,80.87
2018-05-08T00:10:32.167Z,81.25
2018-05-08T00:11:32.070Z,81.05
2018-05-08T00:13:25.119Z,81.82
2018-05-08T00:14:25.027Z,81.59
2018-05-08T00:16:18.077Z,81.59
2018-05-08T00:17:17.979Z,81.68
2018-05-08T00:19:10.933Z,81.97
2018-05-08T00:20:10.840Z,82.07
2018-05-08T00:22:03.781Z,81.68
2018-05-08T00:23:03.689Z,82.35
2018-05-08T00:24:56.635Z,81.88
2018-05-08T00:25:56.548Z,81.68
2018-05-08T00:27:49.591Z,82.07
2018-05-08T00:28:49.497Z,82.35
2018-05-08T00:30:42.469Z,81.68
2018-05-08T00:31:42.353Z,82.35
2018-05-08T00:33:35.396Z,82.35
2018-05-08T00:34:35.304Z,82.45
2018-05-08T00:36:28.352Z,83.12
2018-05-08T00:37:28.258Z,82.74
2018-05-08T00:39:21.305Z,82.83
2018-05-08T00:40:21.217Z,83.12
2018-05-08T00:42:14.263Z,82.45
2018-05-08T00:43:14.170Z,82.64
2018-05-08T00:45:07.220Z,82.93
2018-05-08T00:46:07.127Z,82.93
2018-05-08T00:48:00.108Z,83.03
2018-05-08T00:49:00.080Z,83.12
2018-05-08T00:50:58.671Z,83.56
2018-05-08T00:52:00.363Z,83.46
2018-05-08T00:53:46.229Z,83.84
2018-05-08T00:54:46.034Z,83.94
2018-05-08T00:56:39.612Z,84.89
2018-05-08T00:57:39.501Z,84.13
2018-05-08T00:59:32.654Z,84.52
2018-05-08T01:00:32.472Z,84.03
2018-05-08T01:02:25.611Z,83.94
2018-05-08T01:03:25.414Z,83.94
2018-05-08T01:05:18.565Z,84.61
2018-05-08T01:06:18.369Z,84.70
2018-05-08T01:08:11.521Z,84.23
2018-05-08T01:09:11.323Z,84.32
2018-05-08T01:11:04.474Z,84.52
2018-05-08T01:12:04.278Z,84.13
2018-05-08T01:13:57.429Z,84.61
2018-05-08T01:14:57.237Z,85.28
2018-05-08T01:16:50.384Z,85.18
2018-05-08T01:17:50.189Z,85.75
2018-05-08T01:19:43.334Z,85.47
2018-05-08T01:20:43.138Z,86.23
2018-05-08T01:22:36.807Z,85.85
2018-05-08T01:23:36.613Z,85.28
2018-05-08T01:25:29.669Z,85.66
2018-05-08T01:26:29.567Z,85.28
2018-05-08T01:28:22.618Z,85.71
2018-05-08T01:29:22.521Z,86.29
2018-05-08T01:31:15.572Z,86.10
2018-05-08T01:32:15.478Z,85.90
2018-05-08T01:34:08.430Z,85.71
2018-05-08T01:35:08.333Z,85.66
2018-05-08T01:37:01.286Z,85.62
2018-05-08T01:38:01.192Z,85.33
2018-05-08T01:39:54.235Z,85.71
2018-05-08T01:40:54.140Z,85.71
2018-05-08T01:42:47.088Z,85.71
2018-05-08T01:43:46.999Z,85.33
2018-05-08T01:45:40.044Z,85.33
2018-05-08T01:46:39.948Z,85.14
2018-05-08T01:48:33.002Z,86.00
2018-05-08T01:49:32.907Z,85.52
2018-05-08T01:51:25.954Z,85.62
2018-05-08T01:52:25.858Z,86.76
2018-05-08T01:54:18.910Z,86.38
2018-05-08T01:55:18.812Z,86.57
2018-05-08T01:57:11.864Z,85.90
2018-05-08T01:58:11.772Z,86.29
2018-05-08T02:00:04.819Z,86.29
2018-05-08T02:01:04.724Z,86.57
2018-05-08T02:02:57.776Z,86.29
2018-05-08T02:03:57.683Z,86.29
2018-05-08T02:05:50.833Z,86.67
2018-05-08T02:06:50.640Z,86.29
2018-05-08T02:08:43.687Z,86.29
2018-05-08T02:09:43.592Z,86.29
2018-05-08T02:11:36.749Z,86.10
2018-05-08T02:12:36.548Z,86.19
2018-05-08T02:14:29.600Z,86.76
2018-05-08T02:15:29.502Z,86.29
2018-05-08T02:17:22.657Z,86.67
2018-05-08T02:18:22.460Z,86.38
2018-05-08T02:20:15.620Z,86.38
2018-05-08T02:21:15.416Z,86.72
2018-05-08T02:23:08.567Z,86.34
2018-05-08T02:24:08.369Z,86.19
2018-05-08T02:26:01.539Z,86.34
2018-05-08T02:27:01.335Z,86.72
2018-05-08T02:28:54.480Z,86.82
2018-05-08T02:29:54.283Z,86.72
2018-05-08T02:31:47.435Z,86.53
2018-05-08T02:32:47.241Z,87.01
2018-05-08T02:34:40.391Z,87.58
2018-05-08T02:35:40.204Z,87.39
2018-05-08T02:37:33.245Z,87.58
2018-05-08T02:38:33.100Z,87.29
2018-05-08T02:40:26.203Z,87.87
2018-05-08T02:41:26.004Z,87.77
2018-05-08T02:43:19.157Z,88.34
2018-05-08T02:44:18.959Z,88.54
2018-05-08T02:46:12.109Z,88.34
2018-05-08T02:47:11.911Z,87.77
2018-05-08T02:49:04.895Z,87.87
2018-05-08T02:50:04.866Z,88.15
2018-05-08T02:51:58.022Z,88.15
2018-05-08T02:52:57.824Z,87.87
2018-05-08T02:54:50.985Z,87.77
2018-05-08T02:55:50.788Z,87.35
2018-05-08T02:57:43.936Z,88.01
2018-05-08T02:58:43.740Z,88.59
2018-05-08T03:00:36.890Z,88.78
2018-05-08T03:01:36.692Z,88.73
2018-05-08T03:03:29.843Z,88.49
2018-05-08T03:04:29.644Z,88.34
2018-05-08T03:06:22.798Z,88.30
2018-05-08T03:07:22.601Z,88.30
2018-05-08T03:09:15.753Z,88.59
2018-05-08T03:10:15.553Z,88.59
2018-05-08T03:12:08.708Z,88.68
2018-05-08T03:13:08.509Z,88.40
2018-05-08T03:15:01.571Z,88.78
2018-05-08T03:16:01.464Z,88.68
2018-05-08T03:17:54.623Z,88.11
2018-05-08T03:18:54.431Z,87.63
2018-05-08T03:20:47.571Z,88.01
2018-05-08T03:21:47.372Z,88.78
2018-05-08T03:23:40.528Z,88.87
2018-05-08T03:24:40.329Z,89.06
2018-05-08T03:26:33.484Z,88.87
2018-05-08T03:27:33.285Z,89.54
2018-05-08T03:29:26.439Z,88.97
2018-05-08T03:30:26.245Z,88.78
2018-05-08T03:32:20.322Z,89.16
2018-05-08T03:33:19.197Z,89.16
2018-05-08T03:35:12.262Z,88.78
2018-05-08T03:36:12.157Z,88.68
2018-05-08T03:38:05.618Z,88.30
2018-05-08T03:39:05.525Z,88.40
2018-05-08T03:40:58.469Z,89.25
2018-05-08T03:41:58.379Z,89.54
2018-05-08T03:43:51.327Z,90.02
2018-05-08T03:44:51.231Z,89.54
2018-05-08T03:46:44.179Z,89.92
2018-05-08T03:47:44.084Z,89.64
2018-05-08T03:49:37.132Z,90.02
2018-05-08T03:50:37.038Z,89.92
2018-05-08T03:52:29.985Z,89.64
2018-05-08T03:53:29.891Z,89.97
2018-05-08T03:55:22.941Z,90.07
2018-05-08T03:56:22.845Z,89.88
2018-05-08T03:58:15.795Z,89.54
2018-05-08T03:59:15.702Z,89.97
2018-05-08T04:01:08.751Z,89.78
2018-05-08T04:02:08.652Z,89.59
2018-05-08T04:04:01.711Z,90.26
2018-05-08T04:05:01.608Z,89.40
2018-05-08T04:06:54.659Z,90.36
2018-05-08T04:07:54.560Z,90.17
2018-05-08T04:09:47.614Z,90.02
2018-05-08T04:10:47.521Z,90.69
2018-05-08T04:12:40.570Z,90.45
2018-05-08T04:13:40.438Z,90.50
2018-05-08T04:15:33.488Z,90.59
2018-05-08T04:16:33.328Z,90.64
2018-05-08T04:18:26.484Z,90.93
2018-05-08T04:19:26.282Z,90.73
2018-05-08T04:21:19.342Z,90.73
2018-05-08T04:22:19.237Z,90.73
2018-05-08T04:24:12.396Z,90.64
2018-05-08T04:25:12.194Z,90.55
2018-05-08T04:27:05.248Z,90.64
2018-05-08T04:28:05.149Z,90.93
2018-05-08T04:29:58.321Z,90.93
2018-05-08T04:30:58.107Z,91.02
2018-05-08T04:32:51.270Z,90.59
2018-05-08T04:33:51.059Z,90.93
2018-05-08T04:35:44.221Z,90.55
2018-05-08T04:36:44.061Z,90.59
2018-05-08T04:38:37.179Z,90.45
2018-05-08T04:39:36.972Z,90.93
2018-05-08T04:41:30.130Z,91.07
2018-05-08T04:42:29.930Z,90.88
2018-05-08T04:44:23.088Z,91.41
2018-05-08T04:45:22.885Z,91.45
2018-05-08T04:47:16.041Z,91.36
2018-05-08T04:48:15.837Z,91.55
2018-05-08T04:50:08.832Z,91.36
2018-05-08T04:51:08.794Z,91.16
2018-05-08T04:52:08.881Z,91.26
2018-05-08T04:53:08.745Z,90.78
2018-05-08T04:54:08.893Z,91.45
2018-05-08T04:55:08.708Z,91.64
2018-05-08T04:56:08.680Z,91.74
2018-05-08T04:57:08.813Z,91.74
2018-05-08T04:58:08.636Z,91.36
2018-05-08T04:59:08.723Z,91.55
2018-05-08T05:00:08.588Z,91.45
2018-05-08T05:01:08.637Z,90.69
2018-05-08T05:02:08.546Z,91.16
2018-05-08T05:03:08.652Z,91.36
2018-05-08T05:04:08.499Z,90.69
2018-05-08T05:05:08.664Z,90.78
2018-05-08T05:06:08.453Z,90.50
2018-05-08T05:07:08.578Z,91.55
2018-05-08T05:08:08.404Z,91.07
2018-05-08T05:09:08.489Z,91.26
2018-05-08T05:10:08.362Z,91.59
2018-05-08T05:11:08.504Z,91.36
2018-05-08T05:12:08.316Z,91.30
2018-05-08T05:13:08.413Z,90.45
2018-05-08T05:14:08.270Z,90.45
2018-05-08T05:15:08.427Z,90.64
2018-05-08T05:16:08.226Z,90.73
2018-05-08T05:17:08.335Z,90.25
2018-05-08T05:18:08.186Z,89.68
2018-05-08T05:19:08.353Z,88.63
2018-05-08T05:20:08.144Z,88.77
2018-05-08T05:21:08.275Z,88.68
2018-05-08T05:22:08.089Z,88.48
2018-05-08T05:23:08.303Z,87.82
2018-05-08T05:24:08.043Z,87.91
2018-05-08T05:25:08.193Z,87.72
2018-05-08T05:26:07.998Z,87.72
2018-05-08T05:27:08.162Z,87.91
2018-05-08T05:28:07.955Z,87.34
2018-05-08T05:29:08.119Z,86.67
2018-05-08T05:30:07.911Z,85.75
2018-05-08T05:31:07.927Z,85.66
2018-05-08T05:32:07.868Z,85.94
2018-05-08T05:33:07.943Z,85.75
2018-05-08T05:34:07.823Z,84.13
2018-05-08T05:35:08.903Z,83.94
2018-05-08T05:36:07.774Z,83.56
2018-05-08T05:37:07.867Z,82.07
2018-05-08T05:38:07.730Z,82.45
2018-05-08T05:39:07.784Z,81.21
2018-05-08T05:40:07.696Z,81.59
2018-05-08T05:41:07.689Z,81.59
2018-05-08T05:42:07.644Z,80.73
2018-05-08T05:43:07.705Z,81.02
2018-05-08T05:44:07.605Z,81.02
2018-05-08T05:45:07.614Z,80.77
2018-05-08T05:46:07.589Z,81.15
2018-05-08T05:47:07.633Z,80.58
2018-05-08T05:48:07.499Z,79.91
2018-05-08T05:49:07.542Z,79.72
2018-05-08T05:50:07.464Z,79.72
2018-05-08T05:51:07.560Z,79.81
2018-05-08T05:52:07.409Z,79.72
2018-05-08T05:53:07.467Z,79.43
2018-05-08T05:54:07.381Z,78.89
2018-05-08T05:55:07.485Z,79.47
2018-05-08T05:56:07.329Z,79.18
2018-05-08T05:57:07.370Z,79.37
2018-05-08T05:58:07.291Z,79.85
2018-05-08T05:59:07.277Z,80.52
2018-05-08T06:00:07.249Z,79.95
2018-05-08T06:01:07.288Z,77.84
2018-05-08T06:02:07.193Z,77.84
2018-05-08T06:03:07.199Z,77.36
2018-05-08T06:04:07.167Z,76.73
2018-05-08T06:05:07.211Z,76.35
2018-05-08T06:06:07.111Z,75.96
2018-05-08T06:07:07.121Z,75.68
2018-05-08T06:08:07.063Z,75.39
2018-05-08T06:09:07.134Z,74.05
2018-05-08T06:10:07.022Z,74.76
2018-05-08T06:11:07.043Z,74.18
2018-05-08T06:12:06.978Z,74.37
2018-05-08T06:13:07.056Z,74.08
2018-05-08T06:14:06.947Z,73.80
2018-05-08T06:15:06.966Z,73.22
2018-05-08T06:16:06.894Z,72.27
2018-05-08T06:17:06.979Z,72.55
2018-05-08T06:18:06.872Z,73.22
2018-05-08T06:19:06.886Z,71.34
2018-05-08T06:20:06.796Z,71.34
2018-05-08T06:21:06.900Z,71.44
2018-05-08T06:22:06.765Z,70.38
2018-05-08T06:23:06.819Z,70.67
2018-05-08T06:24:06.720Z,70.48
2018-05-08T06:25:06.717Z,70.19
2018-05-08T06:26:06.679Z,70.32
2018-05-08T06:27:06.752Z,70.70
2018-05-08T06:28:06.637Z,70.76
2018-05-08T06:29:06.640Z,70.23
2018-05-08T06:30:06.593Z,69.56
2018-05-08T06:31:06.680Z,69.65
2018-05-08T06:32:06.549Z,70.61
2018-05-08T06:33:06.569Z,69.36
2018-05-08T06:34:06.539Z,68.98
2018-05-08T06:35:06.581Z,69.56
2018-05-08T06:36:06.465Z,70.13
2018-05-08T06:37:06.487Z,69.46
2018-05-08T06:38:06.434Z,68.69
2018-05-08T06:39:06.504Z,67.92
2018-05-08T06:40:06.409Z,68.73
2018-05-08T06:41:06.409Z,67.76
2018-05-08T06:42:06.341Z,66.90
2018-05-08T06:43:06.422Z,67.19
2018-05-08T06:44:06.299Z,66.90
2018-05-08T06:45:06.337Z,67.67
2018-05-08T06:46:06.256Z,67.09
2018-05-08T06:47:06.344Z,66.23
2018-05-08T06:48:06.217Z,66.90
2018-05-08T06:49:06.257Z,66.33
2018-05-08T06:50:06.172Z,66.64
2018-05-08T06:51:06.163Z,66.36
2018-05-08T06:52:06.140Z,67.51
2018-05-08T06:53:06.177Z,66.55
2018-05-08T06:54:06.090Z,65.97
2018-05-08T06:55:06.088Z,66.07
2018-05-08T06:56:06.049Z,65.59
2018-05-08T06:57:06.099Z,65.01
2018-05-08T06:58:06.011Z,65.20
2018-05-08T06:59:06.011Z,64.72
2018-05-08T07:00:05.972Z,64.82
2018-05-08T07:01:06.026Z,64.34
2018-05-08T07:02:05.928Z,63.96
2018-05-08T07:03:05.934Z,65.05
2018-05-08T07:04:05.890Z,64.95
2018-05-08T07:05:05.954Z,65.05
2018-05-08T07:06:05.841Z,64.95
2018-05-08T07:07:05.868Z,65.53
2018-05-08T07:08:05.803Z,63.70
2018-05-08T07:09:05.898Z,62.45
2018-05-08T07:10:05.773Z,61.52
2018-05-08T07:11:05.784Z,61.91
2018-05-08T07:12:05.761Z,61.52
2018-05-08T07:13:05.803Z,61.04
2018-05-08T07:14:05.680Z,60.66
2018-05-08T07:15:05.703Z,61.23
2018-05-08T07:16:05.792Z,61.52
2018-05-08T07:17:05.716Z,61.04
2018-05-08T07:18:05.598Z,60.75
2018-05-08T07:19:05.627Z,60.37
2018-05-08T07:20:05.561Z,60.94
2018-05-08T07:21:05.635Z,61.52
2018-05-08T07:22:05.535Z,60.66
2018-05-08T07:23:05.545Z,61.46
2018-05-08T07:24:05.546Z,61.23
2018-05-08T07:25:05.558Z,60.78
2018-05-08T07:26:05.444Z,60.56
2018-05-08T07:27:05.470Z,60.85
2018-05-08T07:28:05.397Z,60.46
2018-05-08T07:29:05.480Z,60.46
2018-05-08T07:30:05.405Z,60.46
2018-05-08T07:31:05.401Z,59.92
2018-05-08T07:32:05.326Z,60.88
2018-05-08T07:33:05.404Z,61.16
2018-05-08T07:34:05.280Z,61.74
2018-05-08T07:35:05.314Z,62.90
2018-05-08T07:36:05.240Z,61.55
2018-05-08T07:37:05.329Z,60.78
2018-05-08T07:38:05.203Z,61.55
2018-05-08T07:39:05.238Z,61.26
2018-05-08T07:40:05.165Z,61.46
2018-05-08T07:41:05.141Z,61.07
2018-05-08T07:42:05.155Z,61.26
2018-05-08T07:43:05.099Z,61.07
2018-05-08T07:44:05.167Z,61.29
2018-05-08T07:45:05.066Z,61.58
2018-05-08T07:46:05.045Z,59.75
2018-05-08T07:47:05.084Z,60.30
2018-05-08T07:48:05.003Z,61.58
2018-05-08T07:49:05.095Z,60.14
2018-05-08T07:50:04.971Z,61.49
2018-05-08T07:51:05.006Z,61.49
2018-05-08T07:52:04.924Z,60.81
2018-05-08T07:53:05.015Z,61.00
2018-05-08T07:54:04.886Z,60.33
2018-05-08T07:55:04.927Z,60.24
2018-05-08T07:56:04.850Z,60.81
2018-05-08T07:57:04.939Z,61.19
2018-05-08T07:58:04.811Z,60.62
2018-05-08T07:59:04.851Z,61.29
2018-05-08T08:00:04.770Z,61.10
2018-05-08T08:01:04.859Z,60.81
2018-05-08T08:02:04.733Z,60.42
2018-05-08T08:03:04.772Z,59.94
2018-05-08T08:04:04.694Z,59.97
2018-05-08T08:05:04.787Z,60.91
2018-05-08T08:06:04.655Z,60.14
2018-05-08T08:07:04.695Z,60.65
2018-05-08T08:08:04.614Z,60.72
2018-05-08T08:09:04.706Z,59.97
2018-05-08T08:10:04.581Z,59.69
2018-05-08T08:11:04.626Z,58.82
2018-05-08T08:12:04.541Z,59.20
2018-05-08T08:13:04.629Z,59.59
2018-05-08T08:14:04.507Z,60.65
2018-05-08T08:15:04.539Z,59.69
2018-05-08T08:16:04.466Z,59.11
2018-05-08T08:17:04.552Z,59.97
2018-05-08T08:18:04.426Z,60.75
2018-05-08T08:19:04.462Z,59.49
2018-05-08T08:20:04.386Z,59.91
2018-05-08T08:21:04.477Z,60.77
2018-05-08T08:22:04.349Z,59.91
2018-05-08T08:23:04.389Z,60.10
2018-05-08T08:24:04.309Z,59.81
2018-05-08T08:25:04.403Z,60.87
2018-05-08T08:26:04.268Z,60.97
2018-05-08T08:27:04.312Z,61.07
2018-05-08T08:28:04.240Z,60.20
2018-05-08T08:29:04.323Z,58.95
2018-05-08T08:30:04.200Z,59.81
2018-05-08T08:31:04.236Z,60.52
2018-05-08T08:32:04.163Z,59.75
2018-05-08T08:33:04.248Z,58.59
2018-05-08T08:34:04.127Z,58.40
2018-05-08T08:35:04.158Z,59.07
2018-05-08T08:36:04.089Z,60.03
2018-05-08T08:37:04.169Z,60.13
2018-05-08T08:38:04.049Z,57.37
2018-05-08T08:39:04.082Z,57.75
2018-05-08T08:40:04.014Z,58.72
2018-05-08T08:41:04.091Z,58.62
2018-05-08T08:42:03.979Z,59.20
2018-05-08T08:43:03.998Z,56.98
2018-05-08T08:44:03.940Z,56.81
2018-05-08T08:45:04.010Z,57.01
2018-05-08T08:46:03.905Z,58.55
2018-05-08T08:47:03.921Z,58.94
2018-05-08T08:48:03.871Z,58.10
2018-05-08T08:49:03.935Z,58.10
2018-05-08T08:50:03.833Z,57.81
2018-05-08T08:51:03.844Z,56.74
2018-05-08T08:52:03.796Z,56.87
2018-05-08T08:53:03.859Z,55.52
2018-05-08T08:54:03.758Z,55.04
2018-05-08T08:55:03.769Z,55.16
2018-05-08T08:56:03.757Z,54.77
2018-05-08T08:57:03.781Z,55.38
2018-05-08T08:58:03.689Z,55.38
2018-05-08T08:59:03.691Z,53.83
2018-05-08T09:00:03.651Z,53.74
2018-05-08T09:01:03.703Z,54.73
2018-05-08T09:02:03.627Z,53.19
2018-05-08T09:03:03.615Z,53.57
2018-05-08T09:04:03.610Z,55.15
2018-05-08T09:05:03.630Z,55.63
2018-05-08T09:06:03.549Z,51.95
2018-05-08T09:07:03.531Z,50.43
2018-05-08T09:08:03.513Z,51.08
2018-05-08T09:09:03.549Z,50.43
2018-05-08T09:10:03.477Z,49.75
2018-05-08T09:11:03.560Z,50.07
2018-05-08T09:12:03.449Z,49.17
2018-05-08T09:13:03.472Z,49.68
2018-05-08T09:14:03.407Z,50.57
2018-05-08T09:15:03.483Z,48.54
2018-05-08T09:16:03.372Z,48.37
2018-05-08T09:17:03.394Z,50.31
2018-05-08T09:18:03.364Z,49.44
2018-05-08T09:19:03.407Z,47.20
2018-05-08T09:20:03.309Z,49.73
2018-05-08T09:21:03.317Z,49.27
2018-05-08T09:22:03.278Z,47.91
2018-05-08T09:23:03.330Z,48.20
2018-05-08T09:24:03.240Z,46.16
2018-05-08T09:25:03.344Z,46.55
2018-05-08T09:26:03.207Z,46.84
2018-05-08T09:27:03.253Z,46.36
2018-05-08T09:28:03.175Z,46.45
2018-05-08T09:29:03.275Z,45.20
2018-05-08T09:30:03.151Z,45.20
2018-05-08T09:31:03.177Z,46.19
2018-05-08T09:32:03.112Z,45.99
2018-05-08T09:33:03.184Z,46.69
2018-05-08T09:34:03.079Z,45.55
2018-05-08T09:35:03.093Z,44.78
2018-05-08T09:36:03.052Z,43.41
2018-05-08T09:37:03.108Z,44.00
2018-05-08T09:38:03.025Z,45.17
2018-05-08T09:39:03.017Z,43.51
2018-05-08T09:40:02.981Z,44.29
2018-05-08T09:41:03.064Z,45.26
2018-05-08T09:42:02.957Z,42.64
2018-05-08T09:43:03.044Z,44.51
2018-05-08T09:44:02.922Z,43.46
2018-05-08T09:45:02.953Z,42.97
2018-05-08T09:46:02.893Z,42.00
2018-05-08T09:47:02.962Z,40.25
2018-05-08T09:48:02.863Z,40.93
2018-05-08T09:49:02.927Z,41.03
2018-05-08T09:52:08.859Z,40.54
2018-05-08T09:52:34.485Z,40.34
2018-05-08T09:54:27.508Z,41.30
2018-05-08T09:55:27.439Z,41.22
2018-05-08T09:57:20.409Z,40.54
2018-05-08T09:58:20.444Z,42.68
2018-05-08T10:00:13.414Z,41.03
2018-05-08T10:01:13.338Z,38.62
2018-05-08T10:03:06.382Z,41.16
2018-05-08T10:04:06.291Z,40.01
2018-05-08T10:05:59.322Z,41.67
2018-05-08T10:06:59.243Z,41.60
2018-05-08T10:08:52.233Z,39.76
2018-05-08T10:09:52.257Z,38.01
2018-05-08T10:11:45.228Z,38.02
2018-05-08T10:12:45.152Z,37.81
2018-05-08T10:14:38.179Z,35.38
2018-05-08T10:15:38.105Z,36.65
2018-05-08T10:17:31.126Z,36.53
2018-05-08T10:18:31.090Z,39.28
2018-05-08T10:20:24.070Z,37.21
2018-05-08T10:21:24.042Z,37.50
2018-05-08T10:23:17.037Z,37.02
2018-05-08T10:24:16.967Z,36.92
2018-05-08T10:26:10.037Z,37.31
2018-05-08T10:27:09.953Z,37.50
2018-05-08T10:29:02.994Z,38.56
2018-05-08T10:30:02.913Z,40.89
2018-05-08T10:31:56.048Z,42.08
2018-05-08T10:32:55.915Z,41.81
2018-05-08T10:34:49.009Z,40.17
2018-05-08T10:35:48.844Z,36.96
2018-05-08T10:37:41.801Z,37.95
2018-05-08T10:38:41.774Z,37.46
2018-05-08T10:40:34.927Z,40.11
2018-05-08T10:41:34.734Z,39.36
2018-05-08T10:43:27.905Z,37.22
2018-05-08T10:44:27.688Z,37.71
2018-05-08T10:46:20.828Z,34.97
2018-05-08T10:47:20.643Z,34.67
2018-05-08T10:49:13.781Z,33.89
2018-05-08T10:50:13.596Z,34.77
2018-05-08T10:52:06.738Z,36.91
2018-05-08T10:53:06.561Z,37.30
2018-05-08T10:54:59.689Z,36.24
2018-05-08T10:55:59.525Z,35.16
2018-05-08T10:57:52.646Z,33.89
2018-05-08T10:58:52.470Z,34.06
2018-05-08T11:00:45.600Z,32.99
2018-05-08T11:01:45.436Z,35.53
2018-05-08T11:03:38.556Z,34.06
2018-05-08T11:04:38.379Z,35.33
2018-05-08T11:06:31.640Z,35.53
2018-05-08T11:07:31.335Z,35.74
2018-05-08T11:09:24.468Z,34.38
2018-05-08T11:10:24.297Z,34.67
2018-05-08T11:12:17.428Z,32.52
2018-05-08T11:13:17.251Z,34.38
2018-05-08T11:15:10.380Z,33.90
2018-05-08T11:16:10.212Z,35.46
2018-05-08T11:18:03.855Z,31.56
2018-05-08T11:19:03.676Z,34.31
2018-05-08T11:20:56.917Z,33.53
2018-05-08T11:21:56.724Z,35.50
2018-05-08T11:23:49.858Z,32.46
2018-05-08T11:24:49.697Z,31.49
2018-05-08T11:26:42.861Z,32.55
2018-05-08T11:27:42.640Z,31.96
2018-05-08T11:29:35.882Z,34.80
2018-05-08T11:30:35.696Z,35.60
2018-05-08T11:32:28.849Z,33.54
2018-05-08T11:33:28.650Z,32.46
2018-05-08T11:35:21.891Z,31.49
2018-05-08T11:36:21.720Z,33.15
2018-05-08T11:38:14.846Z,30.00
2018-05-08T11:39:14.781Z,31.07
2018-05-08T11:41:07.904Z,34.00
2018-05-08T11:42:07.721Z,34.19
2018-05-08T11:44:00.964Z,33.62
2018-05-08T11:45:00.782Z,32.55
2018-05-08T11:46:54.016Z,31.49
2018-05-08T11:47:53.840Z,30.41
2018-05-08T11:49:46.980Z,33.26
2018-05-08T11:50:46.907Z,31.51
2018-05-08T11:52:39.982Z,28.96
2018-05-08T11:53:39.962Z,30.43
2018-05-08T11:55:33.094Z,30.83
2018-05-08T11:56:33.012Z,28.19
2018-05-08T11:58:26.044Z,31.32
2018-05-08T11:59:25.983Z,28.47
2018-05-08T12:01:19.044Z,30.33
2018-05-08T12:02:18.928Z,30.91
2018-05-08T12:04:11.953Z,31.11
2018-05-08T12:05:11.887Z,32.68
2018-05-08T12:07:04.910Z,32.68
2018-05-08T12:08:04.842Z,32.48
2018-05-08T12:09:57.865Z,29.94
2018-05-08T12:10:57.800Z,32.40
2018-05-08T12:12:50.825Z,32.12
2018-05-08T12:13:50.752Z,32.60
2018-05-08T12:15:43.773Z,30.54
2018-05-08T12:16:43.707Z,30.54
2018-05-08T12:18:36.730Z,28.58
2018-05-08T12:19:36.664Z,31.23
2018-05-08T12:21:29.708Z,28.29
2018-05-08T12:22:29.620Z,26.82
2018-05-08T12:24:22.643Z,30.54
2018-05-08T12:25:22.578Z,30.35
2018-05-08T12:27:15.703Z,27.61
2018-05-08T12:28:15.529Z,30.54
2018-05-08T12:30:08.657Z,25.65
2018-05-08T12:31:08.484Z,25.65
2018-05-08T12:33:01.517Z,28.19
2018-05-08T12:34:01.402Z,26.82
2018-05-08T12:35:54.573Z,28.39
2018-05-08T12:36:54.394Z,27.50
2018-05-08T12:38:47.425Z,28.00
2018-05-08T12:39:47.309Z,25.44
2018-05-08T12:41:40.481Z,26.31
2018-05-08T12:42:40.304Z,28.55
2018-05-08T12:44:33.441Z,25.92
2018-05-08T12:45:33.269Z,27.28
2018-05-08T12:47:26.393Z,26.90
2018-05-08T12:48:26.222Z,26.90
2018-05-08T12:49:26.382Z,26.42
2018-05-08T12:50:26.245Z,28.86
2018-05-08T12:51:26.295Z,26.33
2018-05-08T12:52:26.185Z,26.23
2018-05-08T12:53:26.308Z,28.78
2018-05-08T12:54:26.164Z,28.69
2018-05-08T12:55:26.322Z,29.58
2018-05-08T12:56:26.152Z,27.72
2018-05-08T12:57:26.233Z,27.91
2018-05-08T12:58:26.133Z,29.48
2018-05-08T12:59:26.246Z,29.30
2018-05-08T13:00:26.111Z,26.84
2018-05-08T13:01:26.261Z,27.63
2018-05-08T13:02:26.095Z,28.02
2018-05-08T13:03:26.169Z,28.91
2018-05-08T13:04:26.080Z,26.26
2018-05-08T13:05:26.273Z,27.63
2018-05-08T13:06:26.058Z,28.40
2018-05-08T13:07:26.198Z,25.95
2018-05-08T13:08:26.048Z,25.56
2018-05-08T13:09:26.215Z,25.56
2018-05-08T13:10:26.050Z,26.25
2018-05-08T13:11:26.123Z,25.76
2018-05-08T13:12:26.010Z,25.66
2018-05-08T13:13:26.138Z,26.54
2018-05-08T13:14:25.997Z,26.44
2018-05-08T13:15:26.156Z,25.65
2018-05-08T13:16:25.973Z,24.08
2018-05-08T13:17:26.063Z,24.19
2018-05-08T13:18:25.957Z,25.27
2018-05-08T13:19:26.076Z,24.97
2018-05-08T13:20:25.938Z,23.79
2018-05-08T13:21:26.091Z,25.55
2018-05-08T13:22:25.925Z,25.65
2018-05-08T13:23:26.105Z,28.20
2018-05-08T13:24:25.904Z,27.03
2018-05-08T13:25:26.021Z,25.85
2018-05-08T13:26:25.888Z,25.56
2018-05-08T13:27:26.036Z,26.54
2018-05-08T13:28:25.870Z,25.37
2018-05-08T13:29:26.060Z,26.73
2018-05-08T13:30:25.854Z,26.83
2018-05-08T13:31:25.960Z,27.12
2018-05-08T13:32:25.839Z,26.64
2018-05-08T13:33:25.981Z,27.91
2018-05-08T13:34:25.861Z,25.85
2018-05-08T13:35:25.988Z,27.04
2018-05-08T13:36:25.800Z,26.95
2018-05-08T13:37:26.001Z,26.15
2018-05-08T13:38:25.784Z,27.04
2018-05-08T13:39:25.916Z,25.66
2018-05-08T13:40:25.766Z,25.67
2018-05-08T13:41:25.924Z,27.14
2018-05-08T13:42:25.750Z,25.57
2018-05-08T13:43:25.940Z,25.67
2018-05-08T13:44:25.783Z,28.81
2018-05-08T13:45:25.854Z,24.49
2018-05-08T13:46:25.716Z,23.32
2018-05-08T13:47:25.862Z,24.79
2018-05-08T13:48:25.707Z,25.28
2018-05-08T13:49:25.881Z,24.90
2018-05-08T13:50:25.689Z,25.68
2018-05-08T13:51:25.897Z,25.59
2018-05-08T13:52:25.671Z,26.67
2018-05-08T13:53:25.808Z,26.46
2018-05-08T13:54:25.648Z,25.78
2018-05-08T13:55:25.720Z,25.59
2018-05-08T13:56:25.634Z,25.20
2018-05-08T13:57:25.733Z,25.98
2018-05-08T13:58:25.619Z,27.25
2018-05-08T13:59:25.645Z,25.20
2018-05-08T14:00:25.602Z,23.53
2018-05-08T14:01:25.658Z,24.21
2018-05-08T14:02:25.584Z,25.59
2018-05-08T14:03:25.672Z,24.02
2018-05-08T14:04:25.578Z,25.70
2018-05-08T14:05:25.687Z,24.22
2018-05-08T14:06:25.552Z,23.93
2018-05-08T14:07:25.597Z,24.13
2018-05-08T14:08:25.539Z,21.66
2018-05-08T14:09:25.653Z,21.56
2018-05-08T14:10:25.519Z,22.14
2018-05-08T14:11:25.628Z,22.05
2018-05-08T14:12:25.503Z,23.31
2018-05-08T14:13:25.539Z,25.46
2018-05-08T14:14:25.485Z,26.55
2018-05-08T14:15:25.554Z,24.48
2018-05-08T14:16:25.475Z,25.48
2018-05-08T14:17:25.572Z,24.98
2018-05-08T14:18:25.454Z,25.09
2018-05-08T14:19:25.757Z,24.20
2018-05-08T14:20:25.439Z,24.90
2018-05-08T14:21:25.487Z,23.33
2018-05-08T14:22:25.424Z,22.14
2018-05-08T14:23:25.505Z,25.77
2018-05-08T14:24:25.411Z,26.17
2018-05-08T14:25:25.532Z,23.43
2018-05-08T14:26:25.391Z,22.14
2018-05-08T14:27:25.430Z,21.95
2018-05-08T14:28:25.375Z,22.44
2018-05-08T14:29:25.446Z,22.92
2018-05-08T14:30:25.360Z,24.01
2018-05-08T14:31:25.476Z,23.52
2018-05-08T14:32:25.342Z,22.53
2018-05-08T14:33:25.475Z,24.20
2018-05-08T14:34:25.326Z,26.07
2018-05-08T14:35:25.387Z,24.31
2018-05-08T14:36:25.317Z,26.35
2018-05-08T14:37:25.401Z,25.59
2018-05-08T14:38:25.359Z,23.13
2018-05-08T14:39:25.470Z,22.64
2018-05-08T14:40:25.285Z,23.43
2018-05-08T14:41:25.428Z,22.63
2018-05-08T14:42:25.261Z,24.20
2018-05-08T14:43:25.340Z,23.50
2018-05-08T14:44:25.280Z,22.81
2018-05-08T14:45:25.354Z,23.41
2018-05-08T14:46:25.238Z,21.74
2018-05-08T14:47:25.368Z,23.31
2018-05-08T14:48:25.214Z,22.03
2018-05-08T14:49:25.330Z,21.55
2018-05-08T14:50:25.197Z,22.03
2018-05-08T14:51:25.295Z,23.12
2018-05-08T14:52:25.184Z,23.71
2018-05-08T14:53:25.310Z,21.16
2018-05-08T14:54:25.186Z,23.52
2018-05-08T14:55:25.354Z,22.34
2018-05-08T14:56:25.150Z,22.14
2018-05-08T14:57:25.235Z,22.63
2018-05-08T14:58:25.137Z,24.41
2018-05-08T14:59:25.250Z,26.27
2018-05-08T15:00:25.115Z,23.63
2018-05-08T15:01:25.264Z,25.21
2018-05-08T15:02:25.099Z,24.03
2018-05-08T15:03:25.177Z,23.55
2018-05-08T15:04:25.149Z,21.98
2018-05-08T15:05:25.215Z,22.37
2018-05-08T15:06:25.068Z,22.37
2018-05-08T15:07:25.207Z,21.58
2018-05-08T15:08:25.055Z,21.58
2018-05-08T15:09:25.226Z,21.87
2018-05-08T15:10:25.038Z,20.79
2018-05-08T15:11:25.188Z,21.47
2018-05-08T15:12:25.022Z,20.59
2018-05-08T15:13:25.148Z,21.17
2018-05-08T15:14:25.007Z,21.17
2018-05-08T15:15:25.161Z,20.19
2018-05-08T15:16:24.988Z,21.56